Dades meteomassalio
Diari Summary for Noviembre 27, 2017 Units:  Metric    English   Both
« Previous Day
Next Day »
Diari Semanal Mensual Anual Personalitzat
  Maxima: Minima: Mijana:
Temperatura: 12.8 °C -3.3 °C 2.5 °C
Rosada: 1.4 °C -5.7 °C -2.6 °C
Humitat: 89 % 42 % 71 %
Velocitat del vent: 18.5 km/h 0.0 km/h 3.1 km/h
Racha vent: 18.5 km/h - -
Vent:- - SW
Pressio: 1034.1 hPa 1027.3 hPa -
Pluja: 0.0 mm    
Historical Graphs
 
 
Tabular Data for Noviembre 27, 2017
Time Temperature Dew Point Pressure Wind Wind Speed Wind Gust Humidity Rainfall Rate (Hourly) solar Conditions
00:00 1.1 °C -3.0 °C 1034.1 hPa West 8.0 km/h 8.0 km/h 74 % 0.0 mm 0.0 W/m2 CLR
00:05 1.1 °C -2.8 °C 1034.1 hPa WNW 9.3 km/h 9.3 km/h 75 % 0.0 mm 0.0 W/m2 CLR
00:10 1.1 °C -3.0 °C 1034.1 hPa WNW 9.3 km/h 9.3 km/h 74 % 0.0 mm 0.0 W/m2 CLR
00:15 1.1 °C -3.0 °C 1034.1 hPa WNW 9.3 km/h 9.3 km/h 74 % 0.0 mm 0.0 W/m2 CLR
00:20 0.6 °C -3.7 °C 1034.1 hPa WNW 8.0 km/h 8.0 km/h 73 % 0.0 mm 0.0 W/m2 CLR
00:25 0.6 °C -3.7 °C 1034.1 hPa West 5.6 km/h 5.6 km/h 73 % 0.0 mm 0.0 W/m2 CLR
00:30 0.6 °C -3.7 °C 1034.1 hPa West 9.3 km/h 9.3 km/h 73 % 0.0 mm 0.0 W/m2 CLR
00:35 0.6 °C -3.7 °C 1033.7 hPa WNW 6.4 km/h 6.4 km/h 73 % 0.0 mm 0.0 W/m2 CLR
00:45 0.0 °C -4.4 °C 1034.1 hPa West 7.4 km/h 7.4 km/h 72 % 0.0 mm 0.0 W/m2 CLR
00:50 0.0 °C -4.3 °C 1033.7 hPa West 5.6 km/h 6.3 km/h 73 % 0.0 mm 0.0 W/m2 CLR
00:55 -0.6 °C -4.8 °C 1033.7 hPa West 9.3 km/h 9.3 km/h 73 % 0.0 mm 0.0 W/m2 CLR
01:00 -0.6 °C -4.8 °C 1033.7 hPa West 9.3 km/h 9.3 km/h 73 % 0.0 mm 0.0 W/m2 CLR
01:05 -0.6 °C -4.8 °C 1033.7 hPa West 9.7 km/h 9.7 km/h 73 % 0.0 mm 0.0 W/m2 CLR
01:10 -0.6 °C -4.6 °C 1033.7 hPa WNW 9.3 km/h 9.3 km/h 74 % 0.0 mm 0.0 W/m2 CLR
01:15 -0.6 °C -4.8 °C 1033.7 hPa WNW 8.0 km/h 8.0 km/h 73 % 0.0 mm 0.0 W/m2 CLR
01:20 -0.6 °C -4.8 °C 1033.7 hPa West 7.4 km/h 7.4 km/h 73 % 0.0 mm 0.0 W/m2 CLR
01:25 -1.1 °C -5.3 °C 1033.4 hPa West 9.3 km/h 9.3 km/h 73 % 0.0 mm 0.0 W/m2 CLR
01:30 -1.1 °C -5.3 °C 1033.4 hPa WNW 7.4 km/h 7.4 km/h 73 % 0.0 mm 0.0 W/m2 CLR
01:35 -1.1 °C -5.3 °C 1033.4 hPa West 3.7 km/h 3.7 km/h 73 % 0.0 mm 0.0 W/m2 CLR
01:40 -1.1 °C -5.2 °C 1033.4 hPa West 5.6 km/h 5.6 km/h 74 % 0.0 mm 0.0 W/m2 CLR
01:45 -1.1 °C -5.0 °C 1033.4 hPa Calm     75 % 0.0 mm 0.0 W/m2 CLR
01:50 -1.7 °C -5.3 °C 1033.4 hPa Calm     76 % 0.0 mm 0.0 W/m2 CLR
01:55 -1.7 °C -5.2 °C 1033.4 hPa West 8.0 km/h 8.0 km/h 77 % 0.0 mm 0.0 W/m2 CLR
02:00 -1.7 °C -5.0 °C 1033.4 hPa West 5.6 km/h 5.6 km/h 78 % 0.0 mm 0.0 W/m2 CLR
02:10 -1.7 °C -4.7 °C 1033.1 hPa WNW 7.4 km/h 7.4 km/h 80 % 0.0 mm 0.0 W/m2 CLR
02:11 -1.7 °C -4.8 °C 1033.1 hPa WNW 7.4 km/h 7.4 km/h 79 % 0.0 mm 0.0 W/m2 CLR
02:16 -1.7 °C -5.3 °C 1033.1 hPa Calm     76 % 0.0 mm 0.0 W/m2 CLR
02:21 -1.7 °C -5.2 °C 1033.1 hPa Calm     77 % 0.0 mm 0.0 W/m2 CLR
02:26 -1.7 °C -4.8 °C 1033.1 hPa West 6.4 km/h 6.4 km/h 79 % 0.0 mm 0.0 W/m2 CLR
02:31 -1.7 °C -4.5 °C 1033.1 hPa NW 5.6 km/h 5.6 km/h 81 % 0.0 mm 0.0 W/m2 CLR
02:36 -1.7 °C -4.5 °C 1033.1 hPa WNW 5.6 km/h 5.6 km/h 81 % 0.0 mm 0.0 W/m2 CLR
02:41 -1.1 °C -3.8 °C 1033.1 hPa Calm     82 % 0.0 mm 0.0 W/m2 CLR
02:46 -1.7 °C -4.3 °C 1033.1 hPa South 3.7 km/h 3.7 km/h 82 % 0.0 mm 0.0 W/m2 CLR
02:51 -1.7 °C -4.0 °C 1033.1 hPa South 3.7 km/h 3.7 km/h 84 % 0.0 mm 0.0 W/m2 CLR
02:56 -1.7 °C -4.0 °C 1033.1 hPa WSW 5.6 km/h 5.6 km/h 84 % 0.0 mm 0.0 W/m2 CLR
03:01 -1.1 °C -3.6 °C 1033.1 hPa WNW 5.6 km/h 5.6 km/h 83 % 0.0 mm 0.0 W/m2 CLR
03:06 -1.1 °C -3.4 °C 1033.1 hPa Calm     84 % 0.0 mm 0.0 W/m2 CLR
03:11 -1.1 °C -3.4 °C 1033.1 hPa Calm     84 % 0.0 mm 0.0 W/m2 CLR
03:16 -1.1 °C -3.4 °C 1033.1 hPa Calm     84 % 0.0 mm 0.0 W/m2 CLR
03:21 -0.6 °C -2.8 °C 1033.1 hPa NNE 5.6 km/h 5.6 km/h 85 % 0.0 mm 0.0 W/m2 CLR
03:26 -1.1 °C -3.3 °C 1033.1 hPa Calm     85 % 0.0 mm 0.0 W/m2 CLR
03:36 -1.1 °C -3.4 °C 1033.1 hPa Calm     84 % 0.0 mm 0.0 W/m2 CLR
03:41 -1.1 °C -3.3 °C 1032.7 hPa Calm     85 % 0.0 mm 0.0 W/m2 CLR
03:46 -1.1 °C -3.3 °C 1032.7 hPa Calm     85 % 0.0 mm 0.0 W/m2 CLR
03:51 -0.6 °C -2.6 °C 1032.7 hPa Calm     86 % 0.0 mm 0.0 W/m2 CLR
03:56 -0.6 °C -2.8 °C 1032.7 hPa Calm     85 % 0.0 mm 0.0 W/m2 CLR
04:01 -1.1 °C -3.3 °C 1032.7 hPa Calm     85 % 0.0 mm 0.0 W/m2 CLR
04:06 -1.1 °C -3.3 °C 1032.7 hPa Calm     85 % 0.0 mm 0.0 W/m2 CLR
04:11 -1.7 °C -3.8 °C 1032.7 hPa Calm     85 % 0.0 mm 0.0 W/m2 CLR
04:16 -1.7 °C -3.8 °C 1032.7 hPa Calm     85 % 0.0 mm 0.0 W/m2 CLR
04:18 -1.7 °C -3.8 °C 1032.7 hPa Calm     85 % 0.0 mm 0.0 W/m2 CLR
04:21 -1.7 °C -3.7 °C 1032.7 hPa Calm     86 % 0.0 mm 0.0 W/m2 CLR
04:26 -1.7 °C -3.7 °C 1032.7 hPa Calm     86 % 0.0 mm 0.0 W/m2 CLR
04:31 -1.7 °C -3.7 °C 1032.7 hPa Calm     86 % 0.0 mm 0.0 W/m2 CLR
04:36 -1.7 °C -3.7 °C 1032.7 hPa Calm     86 % 0.0 mm 0.0 W/m2 CLR
04:37 -2.2 °C -4.2 °C 1032.7 hPa Calm     86 % 0.0 mm 0.0 W/m2 CLR
04:42 -1.7 °C -3.7 °C 1032.7 hPa Calm     86 % 0.0 mm 0.0 W/m2 CLR
04:47 -2.2 °C -4.2 °C 1033.1 hPa Calm     86 % 0.0 mm 0.0 W/m2 CLR
04:52 -2.2 °C -4.2 °C 1033.1 hPa Calm     86 % 0.0 mm 0.0 W/m2 CLR
04:57 -2.2 °C -4.1 °C 1033.1 hPa Calm     87 % 0.0 mm 0.0 W/m2 CLR
05:02 -2.2 °C -4.1 °C 1033.1 hPa Calm     87 % 0.0 mm 0.0 W/m2 CLR
05:07 -2.8 °C -4.7 °C 1033.1 hPa Calm     87 % 0.0 mm 0.0 W/m2 CLR
05:12 -2.2 °C -4.2 °C 1033.1 hPa Calm     86 % 0.0 mm 0.0 W/m2 CLR
05:17 -2.2 °C -4.1 °C 1033.1 hPa Calm     87 % 0.0 mm 0.0 W/m2 CLR
05:22 -2.2 °C -4.1 °C 1033.1 hPa Calm     87 % 0.0 mm 0.0 W/m2 CLR
05:27 -2.2 °C -4.1 °C 1033.1 hPa Calm     87 % 0.0 mm 0.0 W/m2 CLR
05:32 -2.2 °C -4.1 °C 1033.1 hPa Calm     87 % 0.0 mm 0.0 W/m2 CLR
05:37 -2.8 °C -4.8 °C 1033.1 hPa Calm     86 % 0.0 mm 0.0 W/m2 CLR
05:42 -2.2 °C -4.1 °C 1033.1 hPa Calm     87 % 0.0 mm 0.0 W/m2 CLR
05:47 -2.2 °C -3.9 °C 1033.1 hPa WSW 5.6 km/h 5.6 km/h 88 % 0.0 mm 0.0 W/m2 CLR
05:52 -2.2 °C -4.1 °C 1033.1 hPa Calm     87 % 0.0 mm 0.0 W/m2 CLR
05:57 -2.2 °C -4.1 °C 1033.1 hPa WSW 5.6 km/h 5.6 km/h 87 % 0.0 mm 0.0 W/m2 CLR
06:02 -2.8 °C -4.7 °C 1033.1 hPa WSW 3.2 km/h 3.2 km/h 87 % 0.0 mm 0.0 W/m2 CLR
06:07 -2.8 °C -4.7 °C 1033.1 hPa Calm     87 % 0.0 mm 0.0 W/m2 CLR
06:12 -2.8 °C -4.7 °C 1033.1 hPa Calm     87 % 0.0 mm 0.0 W/m2 CLR
06:17 -2.8 °C -4.7 °C 1033.1 hPa Calm     87 % 0.0 mm 0.0 W/m2 CLR
06:22 -2.2 °C -4.1 °C 1033.1 hPa WSW 1.9 km/h   87 % 0.0 mm 0.0 W/m2 CLR
06:27 -2.8 °C -4.7 °C 1033.4 hPa Calm     87 % 0.0 mm 0.0 W/m2 CLR
06:32 -2.8 °C -4.5 °C 1033.4 hPa Calm     88 % 0.0 mm 0.0 W/m2 CLR
06:37 -2.8 °C -4.5 °C 1033.4 hPa Calm     88 % 0.0 mm 0.0 W/m2 CLR
06:42 -2.8 °C -4.5 °C 1033.4 hPa Calm     88 % 0.0 mm 0.0 W/m2 CLR
06:47 -2.8 °C -4.5 °C 1033.4 hPa WSW 3.7 km/h 3.7 km/h 88 % 0.0 mm 0.0 W/m2 CLR
06:52 -2.8 °C -4.5 °C 1033.4 hPa WSW 3.7 km/h 3.7 km/h 88 % 0.0 mm 0.0 W/m2 CLR
06:57 -2.8 °C -4.5 °C 1033.4 hPa Calm     88 % 0.0 mm 0.0 W/m2 CLR
07:02 -2.8 °C -4.5 °C 1033.4 hPa Calm     88 % 0.0 mm 0.0 W/m2 CLR
07:07 -2.8 °C -4.5 °C 1033.4 hPa Calm     88 % 0.0 mm 0.0 W/m2 CLR
07:12 -2.8 °C -4.5 °C 1033.4 hPa Calm     88 % 0.0 mm 0.0 W/m2 CLR
07:17 -3.3 °C -5.1 °C 1033.4 hPa Calm     88 % 0.0 mm 0.0 W/m2 CLR
07:22 -3.3 °C -5.1 °C 1033.4 hPa Calm     88 % 0.0 mm 0.0 W/m2 CLR
07:27 -2.8 °C -4.3 °C 1033.4 hPa Calm     89 % 0.0 mm 0.0 W/m2 CLR
07:32 -3.3 °C -4.9 °C 1033.4 hPa Calm     89 % 0.0 mm 0.0 W/m2 CLR
07:37 -2.8 °C -4.3 °C 1033.4 hPa Calm     89 % 0.0 mm 0.0 W/m2 CLR
07:42 -2.8 °C -4.3 °C 1033.4 hPa Calm     89 % 0.0 mm 0.0 W/m2 CLR
07:47 -3.3 °C -5.1 °C 1033.4 hPa Calm     88 % 0.0 mm 0.0 W/m2 CLR
07:52 -2.8 °C -4.5 °C 1033.4 hPa Calm     88 % 0.0 mm 5.0 W/m2 CLR
07:57 -2.8 °C -4.5 °C 1033.4 hPa Calm     88 % 0.0 mm 5.0 W/m2 CLR
08:02 -2.8 °C -4.5 °C 1033.4 hPa Calm     88 % 0.0 mm 5.0 W/m2 OVC
08:07 -2.8 °C -4.5 °C 1033.4 hPa Calm     88 % 0.0 mm 9.0 W/m2 BKN
08:12 -2.8 °C -4.5 °C 1033.4 hPa Calm     88 % 0.0 mm 14.0 W/m2 BKN
08:17 -2.8 °C -4.5 °C 1033.7 hPa Calm     88 % 0.0 mm 16.0 W/m2 BKN
08:22 -2.8 °C -4.3 °C 1033.7 hPa Calm     89 % 0.0 mm 21.0 W/m2 BKN
08:27 -2.2 °C -3.8 °C 1033.7 hPa Calm     89 % 0.0 mm 28.0 W/m2 BKN
08:32 -2.2 °C -3.9 °C 1033.7 hPa Calm     88 % 0.0 mm 33.0 W/m2 BKN
08:37 -2.2 °C -3.9 °C 1033.7 hPa Calm     88 % 0.0 mm 39.0 W/m2 BKN
08:42 -2.2 °C -3.9 °C 1033.7 hPa Calm     88 % 0.0 mm 53.0 W/m2 SCT
08:47 -2.2 °C -3.9 °C 1033.7 hPa Calm     88 % 0.0 mm 53.0 W/m2 SCT
08:52 -2.2 °C -3.9 °C 1033.7 hPa Calm     88 % 0.0 mm 65.0 W/m2 SCT
08:57 -2.2 °C -3.8 °C 1033.7 hPa Calm     89 % 0.0 mm 67.0 W/m2 SCT
09:02 -1.7 °C -3.4 °C 1033.7 hPa Calm     88 % 0.0 mm 70.0 W/m2 FEW
09:07 -1.7 °C -3.4 °C 1034.1 hPa Calm     88 % 0.0 mm 114.0 W/m2 FEW
09:12 -1.1 °C -2.7 °C 1034.1 hPa Calm     89 % 0.0 mm 127.0 W/m2 CLR
09:17 -1.1 °C -2.7 °C 1033.7 hPa Calm     89 % 0.0 mm 139.0 W/m2 CLR
09:22 -0.6 °C -2.3 °C 1034.1 hPa Calm     88 % 0.0 mm 167.0 W/m2 CLR
09:27 -0.6 °C -2.4 °C 1034.1 hPa Calm     87 % 0.0 mm 160.0 W/m2 CLR
09:33 0.0 °C -1.9 °C 1033.7 hPa Calm     87 % 0.0 mm 139.0 W/m2 CLR
09:38 0.0 °C -2.1 °C 1034.1 hPa Calm     86 % 0.0 mm 109.0 W/m2 CLR
09:43 0.6 °C -1.8 °C 1034.1 hPa Calm     84 % 0.0 mm 174.0 W/m2 CLR
09:48 0.6 °C -2.0 °C 1034.1 hPa Calm     83 % 0.0 mm 223.0 W/m2 CLR
09:53 1.1 °C -1.8 °C 1034.1 hPa Calm     81 % 0.0 mm 229.0 W/m2 CLR
09:58 1.7 °C -1.4 °C 1034.1 hPa Calm     80 % 0.0 mm 290.0 W/m2 CLR
10:03 2.2 °C -1.2 °C 1034.1 hPa Calm     78 % 0.0 mm 290.0 W/m2 CLR
10:08 2.8 °C -1.1 °C 1034.1 hPa Calm     76 % 0.0 mm 318.0 W/m2 CLR
10:13 2.8 °C -1.4 °C 1034.1 hPa Calm     74 % 0.0 mm 355.0 W/m2 CLR
10:18 3.3 °C -1.4 °C 1034.1 hPa Calm     71 % 0.0 mm 394.0 W/m2 CLR
10:23 3.9 °C -0.9 °C 1034.1 hPa Calm     71 % 0.0 mm 367.0 W/m2 CLR
10:28 4.4 °C -0.2 °C 1034.1 hPa Calm     72 % 0.0 mm 304.0 W/m2 CLR
10:33 5.0 °C 0.0 °C 1034.1 hPa Calm     70 % 0.0 mm 178.0 W/m2 CLR
10:38 5.6 °C 0.3 °C 1034.1 hPa Calm     69 % 0.0 mm 135.0 W/m2 CLR
10:43 6.1 °C 0.8 °C 1034.1 hPa Calm     69 % 0.0 mm 309.0 W/m2 CLR
10:48 6.1 °C 0.7 °C 1034.1 hPa Calm     68 % 0.0 mm 338.0 W/m2 CLR
10:53 6.7 °C 0.8 °C 1034.1 hPa Calm     66 % 0.0 mm 297.0 W/m2 CLR
10:58 7.2 °C 1.1 °C 1033.7 hPa Calm     65 % 0.0 mm 213.0 W/m2 CLR
11:03 7.2 °C 1.1 °C 1033.7 hPa Calm     65 % 0.0 mm 343.0 W/m2 CLR
11:08 7.8 °C 1.2 °C 1033.7 hPa Calm     63 % 0.0 mm 404.0 W/m2 CLR
11:13 7.8 °C 0.5 °C 1033.7 hPa WNW 13.0 km/h 13.0 km/h 60 % 0.0 mm 248.0 W/m2 CLR
11:18 8.3 °C 0.8 °C 1033.7 hPa NW 13.0 km/h 13.0 km/h 59 % 0.0 mm 367.0 W/m2 CLR
11:23 8.9 °C 1.3 °C 1033.7 hPa NW 8.0 km/h 8.0 km/h 59 % 0.0 mm 369.0 W/m2 CLR
11:28 8.9 °C 1.3 °C 1033.7 hPa North 13.0 km/h 13.0 km/h 59 % 0.0 mm 311.0 W/m2 CLR
11:33 8.9 °C 1.1 °C 1033.4 hPa Calm     58 % 0.0 mm 483.0 W/m2 CLR
11:38 8.9 °C 0.8 °C 1033.4 hPa NW 16.7 km/h 16.7 km/h 57 % 0.0 mm 309.0 W/m2 CLR
11:43 9.4 °C 1.3 °C 1033.4 hPa NW 11.1 km/h 11.1 km/h 57 % 0.0 mm 301.0 W/m2 CLR
11:48 8.9 °C 0.8 °C 1033.1 hPa NNW 14.8 km/h 14.8 km/h 57 % 0.0 mm 438.0 W/m2 CLR
11:53 9.4 °C 1.1 °C 1033.4 hPa NW 17.7 km/h 17.7 km/h 56 % 0.0 mm 506.0 W/m2 CLR
11:58 9.4 °C 1.1 °C 1033.1 hPa North 18.5 km/h 18.5 km/h 56 % 0.0 mm 517.0 W/m2 CLR
12:03 10.0 °C 1.4 °C 1033.1 hPa North 14.5 km/h 14.5 km/h 55 % 0.0 mm 443.0 W/m2 CLR
12:08 10.0 °C 1.1 °C 1033.1 hPa NNW 18.5 km/h 18.5 km/h 54 % 0.0 mm 485.0 W/m2 CLR
12:13 10.0 °C 1.1 °C 1033.1 hPa NNW 13.0 km/h 13.0 km/h 54 % 0.0 mm 457.0 W/m2 CLR
12:18 10.0 °C 1.1 °C 1032.7 hPa NNW 16.7 km/h 16.7 km/h 54 % 0.0 mm 267.0 W/m2 CLR
12:23 10.0 °C 0.8 °C 1032.7 hPa NNW 18.5 km/h 18.5 km/h 53 % 0.0 mm 287.0 W/m2 CLR
12:28 9.4 °C 0.6 °C 1032.7 hPa NNW 14.8 km/h 14.8 km/h 54 % 0.0 mm 257.0 W/m2 CLR
12:29 9.4 °C 0.6 °C 1032.7 hPa NNW 9.3 km/h 9.3 km/h 54 % 0.0 mm 438.0 W/m2 CLR
12:34 9.4 °C 0.6 °C 1032.7 hPa NNW 14.8 km/h 14.8 km/h 54 % 0.0 mm 450.0 W/m2 CLR
12:39 10.0 °C 0.8 °C 1032.7 hPa NNW 14.8 km/h 14.8 km/h 53 % 0.0 mm 281.0 W/m2 CLR
12:44 10.0 °C 0.8 °C 1032.4 hPa NNW 13.0 km/h 13.0 km/h 53 % 0.0 mm 457.0 W/m2 CLR
12:49 10.0 °C 0.8 °C 1032.4 hPa NNW 14.8 km/h 14.8 km/h 53 % 0.0 mm 524.0 W/m2 CLR
12:54 10.6 °C 1.4 °C 1032.4 hPa Calm     53 % 0.0 mm 587.0 W/m2 CLR
12:59 10.6 °C 1.1 °C 1032.4 hPa NNW 16.7 km/h 16.7 km/h 52 % 0.0 mm 573.0 W/m2 CLR
13:04 11.1 °C 1.3 °C 1032.1 hPa NNW 14.8 km/h 14.8 km/h 51 % 0.0 mm 577.0 W/m2 CLR
13:09 11.1 °C 1.1 °C 1032.1 hPa North 13.0 km/h 13.0 km/h 50 % 0.0 mm 269.0 W/m2 CLR
13:14 11.1 °C 1.3 °C 1032.1 hPa NW 7.4 km/h 7.4 km/h 51 % 0.0 mm 281.0 W/m2 CLR
13:19 10.6 °C 0.6 °C 1032.1 hPa NNW 13.0 km/h 13.0 km/h 50 % 0.0 mm 557.0 W/m2 CLR
13:24 11.1 °C 0.8 °C 1031.7 hPa NW 14.8 km/h 14.8 km/h 49 % 0.0 mm 322.0 W/m2 CLR
13:29 11.1 °C 0.8 °C 1031.7 hPa North 8.0 km/h 8.0 km/h 49 % 0.0 mm 299.0 W/m2 CLR
13:34 11.1 °C 0.8 °C 1031.7 hPa Calm     49 % 0.0 mm 506.0 W/m2 CLR
13:39 11.1 °C 0.5 °C 1031.4 hPa Calm     48 % 0.0 mm 512.0 W/m2 CLR
13:44 11.7 °C 1.0 °C 1031.4 hPa North 7.4 km/h 7.4 km/h 48 % 0.0 mm 522.0 W/m2 CLR
13:49 11.7 °C 1.0 °C 1031.4 hPa Calm     48 % 0.0 mm 508.0 W/m2 CLR
13:59 11.1 °C 0.2 °C 1031.0 hPa North 11.1 km/h 11.1 km/h 47 % 0.0 mm 403.0 W/m2 CLR
14:04 11.7 °C 1.0 °C 1031.0 hPa Calm     48 % 0.0 mm 531.0 W/m2 CLR
14:09 11.7 °C 0.7 °C 1031.0 hPa Calm     47 % 0.0 mm 522.0 W/m2 CLR
14:14 11.1 °C -0.1 °C 1030.7 hPa NNW 1.6 km/h 1.6 km/h 46 % 0.0 mm 390.0 W/m2 CLR
14:19 11.7 °C 0.4 °C 1030.7 hPa Calm     46 % 0.0 mm 473.0 W/m2 CLR
14:24 11.7 °C 0.1 °C 1030.7 hPa Calm     45 % 0.0 mm 494.0 W/m2 CLR
14:29 11.7 °C 0.4 °C 1030.7 hPa Calm     46 % 0.0 mm 534.0 W/m2 CLR
14:34 12.2 °C 0.9 °C 1030.4 hPa Calm     46 % 0.0 mm 513.0 W/m2 CLR
14:39 12.8 °C 1.1 °C 1030.7 hPa Calm     45 % 0.0 mm 445.0 W/m2 CLR
14:44 12.8 °C 1.1 °C 1030.4 hPa Calm     45 % 0.0 mm 360.0 W/m2 CLR
14:49 12.8 °C 0.2 °C 1030.4 hPa Calm     42 % 0.0 mm 346.0 W/m2 CLR
14:54 12.2 °C 0.3 °C 1030.0 hPa Calm     44 % 0.0 mm 221.0 W/m2 CLR
14:59 11.7 °C 0.1 °C 1030.0 hPa Calm     45 % 0.0 mm 394.0 W/m2 CLR
15:04 11.7 °C 0.1 °C 1030.0 hPa East 9.7 km/h 9.7 km/h 45 % 0.0 mm 397.0 W/m2 CLR
15:09 12.2 °C 0.6 °C 1030.0 hPa East 9.3 km/h 9.3 km/h 45 % 0.0 mm 380.0 W/m2 CLR
15:14 12.8 °C 1.4 °C 1030.0 hPa ENE 14.8 km/h 14.8 km/h 46 % 0.0 mm 227.0 W/m2 CLR
15:19 11.7 °C 0.4 °C 1030.0 hPa East 13.0 km/h 13.0 km/h 46 % 0.0 mm 237.0 W/m2 CLR
15:24 11.7 °C 0.7 °C 1030.0 hPa ENE 13.0 km/h 13.0 km/h 47 % 0.0 mm 183.0 W/m2 CLR
15:29 11.1 °C 0.5 °C 1030.0 hPa ENE 14.8 km/h 14.8 km/h 48 % 0.0 mm 283.0 W/m2 CLR
15:34 11.1 °C 0.5 °C 1030.0 hPa Calm     48 % 0.0 mm 271.0 W/m2 CLR
15:39 11.1 °C 0.5 °C 1030.0 hPa East 7.4 km/h 7.4 km/h 48 % 0.0 mm 251.0 W/m2 CLR
15:44 11.1 °C 0.5 °C 1030.0 hPa Calm     48 % 0.0 mm 257.0 W/m2 CLR
15:49 11.1 °C 0.8 °C 1029.7 hPa ENE 7.4 km/h   49 % 0.0 mm 262.0 W/m2 CLR
15:54 11.1 °C 1.1 °C 1029.7 hPa ENE 8.0 km/h 8.0 km/h 50 % 0.0 mm 199.0 W/m2 CLR
15:59 10.6 °C 0.6 °C 1029.7 hPa East 13.0 km/h 13.0 km/h 50 % 0.0 mm 165.0 W/m2 CLR
16:04 10.6 °C 0.6 °C 1029.7 hPa ENE 13.0 km/h 13.0 km/h 50 % 0.0 mm 116.0 W/m2 CLR
16:09 10.0 °C 0.3 °C 1029.7 hPa East 13.0 km/h 13.0 km/h 51 % 0.0 mm 121.0 W/m2 CLR
16:14 10.0 °C 0.6 °C 1029.7 hPa East 9.3 km/h 9.3 km/h 52 % 0.0 mm 158.0 W/m2 CLR
16:19 10.0 °C 0.6 °C 1029.7 hPa ENE 16.7 km/h 16.7 km/h 52 % 0.0 mm 169.0 W/m2 CLR
16:24 10.0 °C 0.6 °C 1029.7 hPa NE 14.8 km/h 14.8 km/h 52 % 0.0 mm 107.0 W/m2 CLR
16:29 10.0 °C 0.6 °C 1029.7 hPa ENE 12.9 km/h 12.9 km/h 52 % 0.0 mm 141.0 W/m2 CLR
16:34 9.4 °C 0.1 °C 1029.7 hPa ENE 9.3 km/h 9.3 km/h 52 % 0.0 mm 141.0 W/m2 CLR
16:39 9.4 °C 0.1 °C 1029.7 hPa ENE 8.0 km/h 8.0 km/h 52 % 0.0 mm 120.0 W/m2 CLR
16:44 9.4 °C 0.1 °C 1029.3 hPa ENE 13.0 km/h 13.0 km/h 52 % 0.0 mm 100.0 W/m2 CLR
16:49 9.4 °C 0.3 °C 1029.3 hPa NE 9.3 km/h 9.3 km/h 53 % 0.0 mm 81.0 W/m2 FEW
16:54 9.4 °C 0.3 °C 1029.3 hPa Calm     53 % 0.0 mm 70.0 W/m2 FEW
16:59 9.4 °C 0.3 °C 1029.3 hPa NE 7.4 km/h   53 % 0.0 mm 62.0 W/m2 SCT
17:04 8.9 °C -0.2 °C 1029.3 hPa ENE 11.1 km/h 11.1 km/h 53 % 0.0 mm 49.0 W/m2 SCT
17:09 8.9 °C -0.2 °C 1029.3 hPa Calm     53 % 0.0 mm 33.0 W/m2 BKN
17:14 8.9 °C 0.1 °C 1029.3 hPa Calm     54 % 0.0 mm 25.0 W/m2 BKN
17:19 8.3 °C -0.4 °C 1029.3 hPa Calm     54 % 0.0 mm 18.0 W/m2 BKN
17:24 8.3 °C -0.4 °C 1029.3 hPa Calm     54 % 0.0 mm 12.0 W/m2 BKN
17:29 7.8 °C -0.7 °C 1029.0 hPa Calm     55 % 0.0 mm 7.0 W/m2 BKN
17:34 7.2 °C -1.0 °C 1029.3 hPa Calm     56 % 0.0 mm 7.0 W/m2 BKN
17:39 6.7 °C -1.3 °C 1029.0 hPa Calm     57 % 0.0 mm 0.0 W/m2 OVC
17:44 6.1 °C -1.8 °C 1029.0 hPa Calm     57 % 0.0 mm 0.0 W/m2 CLR
17:49 5.6 °C -2.1 °C 1029.0 hPa Calm     58 % 0.0 mm 0.0 W/m2 CLR
17:54 5.6 °C -2.1 °C 1029.0 hPa Calm     58 % 0.0 mm 0.0 W/m2 CLR
17:59 5.0 °C -2.3 °C 1029.0 hPa Calm     59 % 0.0 mm 0.0 W/m2 CLR
18:04 4.4 °C -2.9 °C 1029.0 hPa Calm     59 % 0.0 mm 0.0 W/m2 CLR
18:09 4.4 °C -2.7 °C 1029.0 hPa Calm     60 % 0.0 mm 0.0 W/m2 CLR
18:14 3.9 °C -3.2 °C 1029.0 hPa Calm     60 % 0.0 mm 0.0 W/m2 CLR
18:19 3.9 °C -2.9 °C 1029.0 hPa Calm     61 % 0.0 mm 0.0 W/m2 CLR
18:24 3.9 °C -2.9 °C 1029.0 hPa Calm     61 % 0.0 mm 0.0 W/m2 CLR
18:29 3.3 °C -3.5 °C 1029.0 hPa Calm     61 % 0.0 mm 0.0 W/m2 CLR
18:35 3.3 °C -3.3 °C 1029.0 hPa Calm     62 % 0.0 mm 0.0 W/m2 CLR
18:39 3.9 °C -2.7 °C 1029.0 hPa Calm     62 % 0.0 mm 0.0 W/m2 CLR
18:45 3.9 °C -2.7 °C 1029.0 hPa Calm     62 % 0.0 mm 0.0 W/m2 CLR
18:50 3.9 °C -2.7 °C 1029.0 hPa Calm     62 % 0.0 mm 0.0 W/m2 CLR
18:55 3.3 °C -3.1 °C 1029.0 hPa Calm     63 % 0.0 mm 0.0 W/m2 CLR
19:00 3.3 °C -3.1 °C 1029.0 hPa Calm     63 % 0.0 mm 0.0 W/m2 CLR
19:05 3.3 °C -2.8 °C 1029.0 hPa Calm     64 % 0.0 mm 0.0 W/m2 CLR
19:10 3.3 °C -2.6 °C 1029.0 hPa Calm     65 % 0.0 mm 0.0 W/m2 CLR
19:15 2.8 °C -3.2 °C 1029.0 hPa Calm     65 % 0.0 mm 0.0 W/m2 CLR
19:20 2.2 °C -3.7 °C 1029.0 hPa Calm     65 % 0.0 mm 0.0 W/m2 CLR
19:25 1.7 °C -4.0 °C 1029.0 hPa Calm     66 % 0.0 mm 0.0 W/m2 CLR
19:30 2.2 °C -3.3 °C 1029.0 hPa Calm     67 % 0.0 mm 0.0 W/m2 CLR
19:35 1.7 °C -3.8 °C 1029.0 hPa Calm     67 % 0.0 mm 0.0 W/m2 CLR
19:36 1.7 °C -3.6 °C 1029.0 hPa Calm     68 % 0.0 mm 0.0 W/m2 CLR
19:41 1.7 °C -3.6 °C 1029.0 hPa Calm     68 % 0.0 mm 0.0 W/m2 CLR
19:46 1.1 °C -4.2 °C 1029.0 hPa Calm     68 % 0.0 mm 0.0 W/m2 CLR
19:51 1.1 °C -3.9 °C 1029.0 hPa Calm     69 % 0.0 mm 0.0 W/m2 CLR
19:56 0.6 °C -4.5 °C 1029.0 hPa Calm     69 % 0.0 mm 0.0 W/m2 CLR
20:01 0.6 °C -4.5 °C 1028.7 hPa Calm     69 % 0.0 mm 0.0 W/m2 CLR
20:06 0.6 °C -4.3 °C 1028.7 hPa Calm     70 % 0.0 mm 0.0 W/m2 CLR
20:11 0.6 °C -4.3 °C 1028.7 hPa Calm     70 % 0.0 mm 0.0 W/m2 CLR
20:16 0.6 °C -4.1 °C 1028.7 hPa Calm     71 % 0.0 mm 0.0 W/m2 CLR
20:21 0.6 °C -4.1 °C 1028.7 hPa Calm     71 % 0.0 mm 0.0 W/m2 CLR
20:26 0.6 °C -4.1 °C 1028.7 hPa Calm     71 % 0.0 mm 0.0 W/m2 CLR
20:31 0.6 °C -4.1 °C 1028.7 hPa Calm     71 % 0.0 mm 0.0 W/m2 CLR
20:36 0.0 °C -4.6 °C 1028.7 hPa Calm     71 % 0.0 mm 0.0 W/m2 CLR
20:41 0.0 °C -4.4 °C 1028.7 hPa Calm     72 % 0.0 mm 0.0 W/m2 CLR
20:46 0.0 °C -4.4 °C 1028.7 hPa Calm     72 % 0.0 mm 0.0 W/m2 CLR
20:51 -0.6 °C -5.0 °C 1028.7 hPa Calm     72 % 0.0 mm 0.0 W/m2 CLR
20:56 -0.6 °C -4.8 °C 1028.7 hPa Calm     73 % 0.0 mm 0.0 W/m2 CLR
21:01 -0.6 °C -4.8 °C 1028.7 hPa Calm     73 % 0.0 mm 0.0 W/m2 CLR
21:06 -0.6 °C -4.8 °C 1028.7 hPa Calm     73 % 0.0 mm 0.0 W/m2 CLR
21:11 -0.6 °C -4.6 °C 1028.7 hPa Calm     74 % 0.0 mm 0.0 W/m2 CLR
21:16 -0.6 °C -4.6 °C 1028.3 hPa Calm     74 % 0.0 mm 0.0 W/m2 CLR
21:21 -1.1 °C -5.2 °C 1028.3 hPa Calm     74 % 0.0 mm 0.0 W/m2 CLR
21:26 -1.1 °C -5.2 °C 1028.3 hPa Calm     74 % 0.0 mm 0.0 W/m2 CLR
21:31 -1.1 °C -5.0 °C 1028.3 hPa Calm     75 % 0.0 mm 0.0 W/m2 CLR
21:36 -1.1 °C -5.0 °C 1028.3 hPa Calm     75 % 0.0 mm 0.0 W/m2 CLR
21:42 -1.1 °C -5.0 °C 1028.3 hPa Calm     75 % 0.0 mm 0.0 W/m2 CLR
21:47 -1.1 °C -4.8 °C 1028.3 hPa Calm     76 % 0.0 mm 0.0 W/m2 CLR
21:52 -1.1 °C -4.8 °C 1028.3 hPa Calm     76 % 0.0 mm 0.0 W/m2 CLR
21:57 -1.1 °C -4.8 °C 1028.3 hPa Calm     76 % 0.0 mm 0.0 W/m2 CLR
22:02 -1.1 °C -4.8 °C 1028.3 hPa Calm     76 % 0.0 mm 0.0 W/m2 CLR
22:07 -1.7 °C -5.3 °C 1028.3 hPa Calm     76 % 0.0 mm 0.0 W/m2 CLR
22:12 -1.7 °C -5.2 °C 1028.3 hPa Calm     77 % 0.0 mm 0.0 W/m2 CLR
22:17 -1.7 °C -5.2 °C 1028.0 hPa Calm     77 % 0.0 mm 0.0 W/m2 CLR
22:22 -1.7 °C -5.2 °C 1028.0 hPa Calm     77 % 0.0 mm 0.0 W/m2 CLR
22:27 -1.7 °C -5.0 °C 1028.0 hPa Calm     78 % 0.0 mm 0.0 W/m2 CLR
22:32 -1.7 °C -5.0 °C 1028.0 hPa Calm     78 % 0.0 mm 0.0 W/m2 CLR
22:37 -2.2 °C -5.6 °C 1028.0 hPa Calm     78 % 0.0 mm 0.0 W/m2 CLR
22:42 -2.2 °C -5.7 °C 1028.0 hPa Calm     77 % 0.0 mm 0.0 W/m2 CLR
22:47 -2.2 °C -5.6 °C 1028.0 hPa Calm     78 % 0.0 mm 0.0 W/m2 CLR
22:52 -1.7 °C -4.8 °C 1028.0 hPa Calm     79 % 0.0 mm 0.0 W/m2 CLR
22:57 -1.7 °C -4.8 °C 1027.7 hPa Calm     79 % 0.0 mm 0.0 W/m2 CLR
23:02 -2.2 °C -5.2 °C 1027.7 hPa Calm     80 % 0.0 mm 0.0 W/m2 CLR
23:07 -2.2 °C -5.2 °C 1027.7 hPa Calm     80 % 0.0 mm 0.0 W/m2 CLR
23:12 -2.2 °C -5.2 °C 1027.7 hPa Calm     80 % 0.0 mm 0.0 W/m2 CLR
23:17 -2.2 °C -5.2 °C 1027.7 hPa Calm     80 % 0.0 mm 0.0 W/m2 CLR
23:22 -2.2 °C -5.4 °C 1027.3 hPa Calm     79 % 0.0 mm 0.0 W/m2 CLR
23:27 -2.2 °C -5.2 °C 1027.3 hPa Calm     80 % 0.0 mm 0.0 W/m2 CLR
23:32 -2.8 °C -5.7 °C 1027.3 hPa Calm     80 % 0.0 mm 0.0 W/m2 CLR
23:37 -2.2 °C -5.2 °C 1027.3 hPa Calm     80 % 0.0 mm 0.0 W/m2 CLR
23:42 -2.2 °C -5.1 °C 1027.3 hPa Calm     81 % 0.0 mm 0.0 W/m2 CLR
23:47 -2.2 °C -5.1 °C 1027.3 hPa Calm     81 % 0.0 mm 0.0 W/m2 CLR
23:52 -2.2 °C -4.9 °C 1027.3 hPa Calm     82 % 0.0 mm 0.0 W/m2 CLR
23:57 -2.2 °C -4.9 °C 1027.3 hPa Calm     82 % 0.0 mm 0.0 W/m2 CLR
Lo Temps de Massalio
Compliments of Weather Underground - 1.25 mb